Time;durP1;ratioP1;P1;durP2;ratioP2;P2;SDS_P1;SDS_P2;PMS_P1;PMS_P2;Temp;Humidity;BMP_temperature;BMP_pressure;BME280_temperature;BME280_humidity;BME280_pressure;Samples;Min_cycle;Max_cycle;Signal;HPM_P1;HPM_P2
2022/03/05 00:01:56;;;;;;;27.70;13.60;;;6.00;56.70;;;;;;5044677;28;20362;-72
2022/03/05 00:04:22;;;;;;;23.95;13.00;;;6.00;56.70;;;;;;5055251;28;20067;-72
2022/03/05 00:06:49;;;;;;;22.85;12.10;;;5.90;56.70;;;;;;5054380;28;20033;-72
2022/03/05 00:09:17;;;;;;;25.75;13.63;;;5.90;56.80;;;;;;5052641;28;20112;-72
2022/03/05 00:11:43;;;;;;;25.52;14.13;;;5.90;56.90;;;;;;5030356;28;20021;-72
2022/03/05 00:14:09;;;;;;;24.88;13.50;;;5.80;56.90;;;;;;5035751;28;20100;-72
2022/03/05 00:16:34;;;;;;;23.20;13.05;;;5.80;57.00;;;;;;5018146;28;20025;-71
2022/03/05 00:19:00;;;;;;;31.85;19.35;;;5.80;57.10;;;;;;5049386;28;20425;-71
2022/03/05 00:21:25;;;;;;;51.42;35.35;;;5.80;57.20;;;;;;5038185;28;20021;-72
2022/03/05 00:23:51;;;;;;;39.17;26.27;;;5.80;57.30;;;;;;5054104;28;20037;-72
2022/03/05 00:26:17;;;;;;;32.50;19.93;;;5.80;57.30;;;;;;5052989;28;20087;-72
2022/03/05 00:28:43;;;;;;;31.05;17.75;;;5.70;57.30;;;;;;5038487;28;20365;-72
2022/03/05 00:31:09;;;;;;;34.15;21.65;;;5.70;57.40;;;;;;5003427;28;20381;-72
2022/03/05 00:33:34;;;;;;;33.30;19.02;;;5.70;57.50;;;;;;5054691;28;20033;-71
2022/03/05 00:36:00;;;;;;;52.08;31.60;;;5.60;57.60;;;;;;5037101;28;20412;-71
2022/03/05 00:38:26;;;;;;;165.20;98.85;;;5.60;57.60;;;;;;5054176;28;20021;-72
2022/03/05 00:40:51;;;;;;;90.50;57.35;;;5.60;57.60;;;;;;5052198;28;20110;-72
2022/03/05 00:43:18;;;;;;;193.38;117.63;;;5.60;57.70;;;;;;5065249;28;20017;-72
2022/03/05 00:45:44;;;;;;;104.03;62.53;;;5.60;57.80;;;;;;5054629;28;20451;-72
2022/03/05 00:48:09;;;;;;;63.30;37.03;;;5.60;57.80;;;;;;5053609;28;20039;-72
2022/03/05 00:50:35;;;;;;;74.50;47.33;;;5.60;57.80;;;;;;5035309;28;20029;-72
2022/03/05 00:53:01;;;;;;;72.55;43.35;;;5.50;57.80;;;;;;5041993;28;20381;-72
2022/03/05 00:55:26;;;;;;;47.00;27.35;;;5.50;57.90;;;;;;5034640;28;20029;-72
2022/03/05 00:57:52;;;;;;;59.92;34.28;;;5.50;57.90;;;;;;5035494;28;20036;-71
2022/03/05 01:00:18;;;;;;;39.88;22.88;;;5.50;58.00;;;;;;5036712;28;20035;-71
2022/03/05 01:02:43;;;;;;;45.42;27.00;;;5.40;58.60;;;;;;5051875;28;20417;-72
2022/03/05 01:05:10;;;;;;;30.25;17.30;;;5.40;58.10;;;;;;5052568;28;20037;-72
2022/03/05 01:07:37;;;;;;;36.30;20.73;;;5.40;58.10;;;;;;5022555;28;20103;-72
2022/03/05 01:10:03;;;;;;;31.03;17.13;;;5.40;58.20;;;;;;5033748;28;20052;-72
2022/03/05 01:12:29;;;;;;;30.63;15.77;;;5.30;58.20;;;;;;5033390;28;20403;-72
2022/03/05 01:14:55;;;;;;;27.13;14.50;;;5.30;58.20;;;;;;5054154;28;20040;-72
2022/03/05 01:17:20;;;;;;;27.63;14.43;;;5.30;58.30;;;;;;5052780;28;20025;-72
2022/03/05 01:19:47;;;;;;;24.65;13.80;;;5.30;58.30;;;;;;5054571;28;20083;-72
2022/03/05 01:22:13;;;;;;;27.60;14.52;;;5.30;58.40;;;;;;5034644;28;20339;-72
2022/03/05 01:24:39;;;;;;;27.35;13.88;;;5.30;58.40;;;;;;5037623;28;20354;-72
2022/03/05 01:27:04;;;;;;;25.85;13.60;;;5.20;58.40;;;;;;5047961;28;20032;-72
2022/03/05 01:29:30;;;;;;;25.53;15.00;;;5.20;58.40;;;;;;5049810;28;20462;-72
2022/03/05 01:31:56;;;;;;;28.90;14.70;;;5.20;58.50;;;;;;5046994;28;20028;-72
2022/03/05 01:34:22;;;;;;;31.92;14.43;;;5.20;58.50;;;;;;5057856;28;20370;-72
2022/03/05 01:36:47;;;;;;;23.67;13.10;;;5.20;58.50;;;;;;5055369;28;20025;-72
2022/03/05 01:39:14;;;;;;;27.40;13.68;;;5.20;58.50;;;;;;5021822;28;20041;-72
2022/03/05 01:41:40;;;;;;;28.87;14.43;;;5.10;58.60;;;;;;5048404;28;20044;-72
2022/03/05 01:44:06;;;;;;;27.13;13.80;;;5.00;58.70;;;;;;5056827;28;20347;-72
2022/03/05 01:46:35;;;;;;;27.15;14.65;;;5.00;58.80;;;;;;5036660;28;20025;-72
2022/03/05 01:49:03;;;;;;;27.63;14.73;;;5.00;58.90;;;;;;5053099;28;20090;-72
2022/03/05 01:51:29;;;;;;;28.50;15.30;;;5.00;58.90;;;;;;5048097;28;20025;-72
2022/03/05 01:53:55;;;;;;;29.20;14.87;;;5.00;59.00;;;;;;5054970;28;20092;-72
2022/03/05 01:56:22;;;;;;;28.15;14.50;;;5.00;59.00;;;;;;5054934;28;20021;-72
2022/03/05 01:58:48;;;;;;;26.45;14.32;;;5.00;59.00;;;;;;5052946;28;20030;-71
2022/03/05 02:01:14;;;;;;;28.27;12.87;;;5.00;59.00;;;;;;5054438;28;20095;-72
2022/03/05 02:03:41;;;;;;;28.27;15.05;;;5.00;59.00;;;;;;5030855;28;20466;-72
2022/03/05 02:06:06;;;;;;;27.70;14.77;;;4.90;59.00;;;;;;5036332;28;20083;-72
2022/03/05 02:08:32;;;;;;;28.52;14.43;;;4.90;59.10;;;;;;5036523;28;20060;-72
2022/03/05 02:10:58;;;;;;;27.07;13.87;;;4.90;59.10;;;;;;5037199;28;20036;-72
2022/03/05 02:13:25;;;;;;;30.47;14.73;;;4.90;59.20;;;;;;5041845;28;20408;-72
2022/03/05 02:15:58;;;;;;;31.07;15.17;;;4.90;59.20;;;;;;5037334;28;20047;-71
2022/03/05 02:18:24;;;;;;;28.67;13.50;;;4.90;59.30;;;;;;5047933;28;20115;-71
2022/03/05 02:20:51;;;;;;;26.53;14.10;;;4.80;59.30;;;;;;5035844;28;20381;-72
2022/03/05 02:23:17;;;;;;;26.10;13.77;;;4.80;59.30;;;;;;5043377;28;20036;-71
2022/03/05 02:26:01;;;;;;;31.23;15.40;;;4.80;59.30;;;;;;5037152;28;20365;-71
2022/03/05 02:28:27;;;;;;;25.80;13.97;;;4.80;59.30;;;;;;5040504;28;20025;-72
2022/03/05 02:30:55;;;;;;;25.00;13.67;;;4.80;59.40;;;;;;5036699;28;20125;-72
2022/03/05 02:33:20;;;;;;;29.23;15.30;;;4.80;59.30;;;;;;5041616;28;20029;-72
2022/03/05 02:35:46;;;;;;;26.20;14.40;;;4.80;59.40;;;;;;5055255;28;20036;-72
2022/03/05 02:38:14;;;;;;;29.77;15.43;;;4.70;59.30;;;;;;5048126;28;20053;-72
2022/03/05 02:40:41;;;;;;;31.13;14.88;;;4.70;59.40;;;;;;5031537;28;20203;-72
2022/03/05 02:43:08;;;;;;;30.40;15.63;;;4.70;59.40;;;;;;5033279;28;20365;-71
2022/03/05 02:45:34;;;;;;;33.37;16.27;;;4.70;59.50;;;;;;5018612;28;20095;-72
2022/03/05 02:48:02;;;;;;;31.97;15.53;;;4.70;59.60;;;;;;5038944;28;20108;-72
2022/03/05 02:50:28;;;;;;;31.77;17.27;;;4.70;59.60;;;;;;5054843;28;20029;-72
2022/03/05 02:52:53;;;;;;;30.87;16.33;;;4.60;59.60;;;;;;5051606;28;20361;-72
2022/03/05 02:55:19;;;;;;;35.27;18.60;;;4.60;59.60;;;;;;5038606;28;20038;-72
2022/03/05 02:57:45;;;;;;;31.43;16.37;;;4.60;59.70;;;;;;5018838;28;20029;-72
2022/03/05 03:00:11;;;;;;;31.23;16.47;;;4.60;59.70;;;;;;5038101;28;20057;-72
2022/03/05 03:02:38;;;;;;;31.23;16.03;;;4.60;59.70;;;;;;5054267;28;20055;-72
2022/03/05 03:05:03;;;;;;;32.60;15.97;;;4.60;59.80;;;;;;5053513;28;20024;-72
2022/03/05 03:07:29;;;;;;;34.33;16.60;;;4.60;59.80;;;;;;5055607;28;20040;-72
2022/03/05 03:09:54;;;;;;;34.17;17.23;;;4.60;59.90;;;;;;5046916;28;20231;-72
2022/03/05 03:12:20;;;;;;;30.75;15.95;;;4.50;59.80;;;;;;5035881;28;20036;-72
2022/03/05 03:14:46;;;;;;;34.70;17.00;;;4.50;59.90;;;;;;5051511;28;20025;-72
2022/03/05 03:17:12;;;;;;;32.93;15.30;;;4.50;59.90;;;;;;5055369;28;20354;-72
2022/03/05 03:19:37;;;;;;;29.13;15.23;;;4.50;59.90;;;;;;5023151;28;20060;-72
2022/03/05 03:22:03;;;;;;;32.13;16.50;;;4.40;59.90;;;;;;5034282;28;20049;-72
2022/03/05 03:24:28;;;;;;;33.00;15.07;;;4.40;60.00;;;;;;5040378;28;20043;-72
2022/03/05 03:26:54;;;;;;;34.10;15.93;;;4.40;60.00;;;;;;5054170;28;20093;-72
2022/03/05 03:29:19;;;;;;;33.47;17.10;;;4.40;60.00;;;;;;5044605;28;20088;-72
2022/03/05 03:31:45;;;;;;;35.07;17.10;;;4.40;60.10;;;;;;5034829;28;20034;-72
2022/03/05 03:34:11;;;;;;;32.10;17.53;;;4.40;60.20;;;;;;5036268;28;20030;-72
2022/03/05 03:36:36;;;;;;;29.60;14.57;;;4.30;60.10;;;;;;5035363;28;20113;-72
2022/03/05 03:39:02;;;;;;;31.37;15.90;;;4.30;60.00;;;;;;5040620;28;20025;-71
2022/03/05 03:41:28;;;;;;;33.23;17.47;;;4.30;60.00;;;;;;5034623;28;20412;-71
2022/03/05 03:43:53;;;;;;;29.17;14.47;;;4.20;60.00;;;;;;5038625;28;20033;-71
2022/03/05 03:46:19;;;;;;;32.43;16.07;;;4.30;60.10;;;;;;5053469;28;20416;-71
2022/03/05 03:48:45;;;;;;;34.73;17.27;;;4.30;60.10;;;;;;5034755;28;20042;-72
2022/03/05 03:51:10;;;;;;;35.07;17.77;;;4.20;60.10;;;;;;5052524;28;20158;-72
2022/03/05 03:53:36;;;;;;;35.00;17.03;;;4.20;60.00;;;;;;5053446;28;20032;-72
2022/03/05 03:56:02;;;;;;;31.73;16.17;;;4.20;60.00;;;;;;5052906;28;20036;-72
2022/03/05 03:58:27;;;;;;;33.67;16.43;;;4.20;60.10;;;;;;5040368;28;20021;-72
2022/03/05 04:00:53;;;;;;;30.17;15.37;;;4.20;60.10;;;;;;5035830;28;20048;-72
2022/03/05 04:03:18;;;;;;;35.90;17.17;;;4.10;60.00;;;;;;5035708;28;20034;-71
2022/03/05 04:05:45;;;;;;;32.63;17.43;;;4.10;60.10;;;;;;5034995;28;20040;-72
2022/03/05 04:10:55;;;;;;;37.77;16.20;;;4.10;60.20;;;;;;5048632;28;20033;-71
2022/03/05 04:13:23;;;;;;;31.80;15.70;;;4.00;60.20;;;;;;5051842;28;20029;-71
2022/03/05 04:15:49;;;;;;;31.60;15.20;;;4.00;60.20;;;;;;5053566;28;20112;-71
2022/03/05 04:18:14;;;;;;;37.60;17.70;;;4.00;60.30;;;;;;5036850;28;20426;-72
2022/03/05 04:20:40;;;;;;;36.90;17.30;;;4.00;60.20;;;;;;5033752;28;20120;-72
2022/03/05 04:23:06;;;;;;;35.50;16.20;;;4.00;60.20;;;;;;5036324;28;20120;-72
2022/03/05 04:25:31;;;;;;;36.90;17.43;;;4.00;60.20;;;;;;5034436;28;20060;-72
2022/03/05 04:27:57;;;;;;;33.77;16.83;;;4.00;60.30;;;;;;5033451;28;20041;-69
2022/03/05 04:30:22;;;;;;;32.97;15.50;;;4.00;60.30;;;;;;5048950;28;20100;-72
2022/03/05 04:32:48;;;;;;;36.93;16.53;;;4.00;60.30;;;;;;5042829;28;20394;-71
2022/03/05 04:35:14;;;;;;;36.43;17.10;;;4.00;60.30;;;;;;5046451;28;20029;-71
2022/03/05 04:37:40;;;;;;;32.00;16.97;;;3.90;60.30;;;;;;5054105;28;20121;-71
2022/03/05 04:40:06;;;;;;;33.37;16.97;;;3.90;60.30;;;;;;5052695;28;20029;-72
2022/03/05 04:42:32;;;;;;;35.50;16.80;;;3.90;60.30;;;;;;5051631;28;20447;-71
2022/03/05 04:44:58;;;;;;;35.70;17.47;;;3.90;60.30;;;;;;5032954;28;20064;-72
2022/03/05 04:47:24;;;;;;;38.43;17.73;;;3.90;60.40;;;;;;5035447;28;20025;-72
2022/03/05 04:49:50;;;;;;;36.07;17.30;;;3.90;60.40;;;;;;5035800;28;20040;-72
2022/03/05 04:52:16;;;;;;;35.73;17.60;;;3.90;60.40;;;;;;5034070;28;20079;-72
2022/03/05 04:54:41;;;;;;;37.80;17.73;;;3.90;60.50;;;;;;5034084;28;20025;-72
2022/03/05 04:57:07;;;;;;;35.73;17.40;;;3.90;60.50;;;;;;5042811;28;20394;-72
2022/03/05 04:59:34;;;;;;;33.87;18.00;;;3.90;60.50;;;;;;5049862;28;20032;-72
2022/03/05 05:02:00;;;;;;;36.53;18.03;;;3.90;60.40;;;;;;5052997;28;20339;-72
2022/03/05 05:04:26;;;;;;;33.83;16.07;;;3.90;60.40;;;;;;5053918;28;20021;-72
2022/03/05 05:06:51;;;;;;;37.07;17.13;;;3.90;60.50;;;;;;5050664;28;20033;-72
2022/03/05 05:09:17;;;;;;;31.80;16.00;;;3.90;60.50;;;;;;5039771;28;20031;-72
2022/03/05 05:11:43;;;;;;;35.17;17.93;;;3.90;60.50;;;;;;5037244;28;20691;-71
2022/03/05 05:14:10;;;;;;;35.23;16.60;;;3.90;60.60;;;;;;5041604;28;20418;-72
2022/03/05 05:16:36;;;;;;;35.33;18.07;;;3.90;60.50;;;;;;5043564;28;20029;-72
2022/03/05 05:21:46;;;;;;;35.03;18.27;;;3.80;60.70;;;;;;5045283;28;20446;-72
2022/03/05 05:24:12;;;;;;;39.23;17.63;;;3.70;60.60;;;;;;5045821;28;20052;-72
2022/03/05 05:26:38;;;;;;;37.27;17.53;;;3.70;60.70;;;;;;5051646;28;20327;-72
2022/03/05 05:29:04;;;;;;;37.67;18.43;;;3.70;60.70;;;;;;5037924;28;20048;-72
2022/03/05 05:31:29;;;;;;;35.20;16.40;;;3.70;60.80;;;;;;5052135;28;20272;-72
2022/03/05 05:33:55;;;;;;;41.53;19.27;;;3.70;60.80;;;;;;5057168;28;20036;-72
2022/03/05 05:36:21;;;;;;;37.97;17.60;;;3.70;60.80;;;;;;5043429;28;20079;-72
2022/03/05 05:38:47;;;;;;;38.73;17.70;;;3.70;60.80;;;;;;5056632;28;20025;-72
2022/03/05 05:41:14;;;;;;;39.20;18.90;;;3.70;60.90;;;;;;5056747;28;20025;-72
2022/03/05 05:43:40;;;;;;;36.57;17.30;;;3.70;60.90;;;;;;5055918;28;20152;-72
2022/03/05 05:46:06;;;;;;;37.73;18.00;;;3.70;60.90;;;;;;5044159;28;20040;-72
2022/03/05 05:48:32;;;;;;;37.83;17.63;;;3.60;60.80;;;;;;5046195;28;20033;-72
2022/03/05 05:50:57;;;;;;;41.40;19.33;;;3.60;60.80;;;;;;5037511;28;20425;-72
2022/03/05 05:53:25;;;;;;;36.87;17.27;;;3.60;61.20;;;;;;5036947;28;20025;-71
2022/03/05 05:55:52;;;;;;;37.90;17.37;;;3.60;61.10;;;;;;5038786;28;20030;-72
2022/03/05 05:58:18;;;;;;;37.37;17.33;;;3.60;61.10;;;;;;5037613;28;20336;-72
2022/03/05 06:00:44;;;;;;;36.40;17.00;;;3.60;61.20;;;;;;5038073;28;20033;-72
2022/03/05 06:03:09;;;;;;;38.73;17.70;;;3.60;61.20;;;;;;5037247;28;20044;-71
2022/03/05 06:05:35;;;;;;;36.70;17.07;;;3.60;61.20;;;;;;5037560;28;20496;-72
2022/03/05 06:08:00;;;;;;;36.83;17.50;;;3.60;61.20;;;;;;5019766;28;20056;-72
2022/03/05 06:10:26;;;;;;;38.00;17.37;;;3.50;61.10;;;;;;5039080;28;20079;-71
2022/03/05 06:12:51;;;;;;;37.47;18.57;;;3.50;61.20;;;;;;5056731;28;20445;-72
2022/03/05 06:15:17;;;;;;;34.27;17.00;;;3.50;61.20;;;;;;5053523;28;20137;-72
2022/03/05 06:17:43;;;;;;;36.57;17.23;;;3.50;61.20;;;;;;5037871;28;20033;-72
2022/03/05 06:20:10;;;;;;;37.10;16.93;;;3.50;61.20;;;;;;5038603;28;20452;-73
2022/03/05 06:22:37;;;;;;;37.63;17.03;;;3.50;61.20;;;;;;5054931;28;20043;-73
2022/03/05 06:25:03;;;;;;;38.53;17.53;;;3.50;61.20;;;;;;5054259;28;20103;-73
2022/03/05 06:27:29;;;;;;;36.03;16.97;;;3.50;61.40;;;;;;5039743;28;20472;-73
2022/03/05 06:29:55;;;;;;;40.30;18.60;;;3.50;61.40;;;;;;5037766;28;20141;-73
2022/03/05 06:32:21;;;;;;;35.23;16.37;;;3.50;61.40;;;;;;5055231;28;20029;-72
2022/03/05 06:34:47;;;;;;;37.10;18.57;;;3.50;61.30;;;;;;5042514;28;20409;-68
2022/03/05 06:37:13;;;;;;;39.67;19.10;;;3.50;61.30;;;;;;5069744;28;20020;-71
2022/03/05 06:39:39;;;;;;;37.27;17.40;;;3.50;61.30;;;;;;5076154;28;20061;-71
2022/03/05 06:42:06;;;;;;;38.73;17.83;;;3.50;61.40;;;;;;5040189;28;20388;-71
2022/03/05 06:44:31;;;;;;;38.37;19.00;;;3.50;61.30;;;;;;5036782;28;20120;-71
2022/03/05 06:46:58;;;;;;;42.73;19.63;;;3.60;61.30;;;;;;5035721;28;20433;-71
2022/03/05 06:49:24;;;;;;;34.43;17.33;;;3.60;61.20;;;;;;5036715;28;20044;-71
2022/03/05 06:51:49;;;;;;;40.83;18.23;;;3.60;61.20;;;;;;5045832;28;20458;-71
2022/03/05 06:54:15;;;;;;;38.37;18.10;;;3.60;61.20;;;;;;5055440;28;20434;-71
2022/03/05 06:56:41;;;;;;;39.23;17.97;;;3.60;61.20;;;;;;5046347;28;20489;-71
2022/03/05 06:59:07;;;;;;;35.20;17.33;;;3.60;61.20;;;;;;5056437;28;20017;-71
2022/03/05 07:01:32;;;;;;;37.07;17.03;;;3.60;61.10;;;;;;5055221;28;20029;-71
2022/03/05 07:03:58;;;;;;;36.90;17.73;;;3.70;61.10;;;;;;5038592;28;20024;-71
2022/03/05 07:06:23;;;;;;;36.50;16.30;;;3.70;61.20;;;;;;5041372;28;20025;-71
2022/03/05 07:08:49;;;;;;;39.73;19.13;;;3.70;61.10;;;;;;5036630;28;20511;-71
2022/03/05 07:11:15;;;;;;;37.73;17.93;;;3.60;61.00;;;;;;5024929;28;20370;-71
2022/03/05 07:13:40;;;;;;;39.63;16.87;;;3.70;61.00;;;;;;5034702;28;20048;-71
2022/03/05 07:16:06;;;;;;;37.70;17.53;;;3.70;61.00;;;;;;5043276;28;20029;-71
2022/03/05 07:18:32;;;;;;;40.90;19.13;;;3.80;61.00;;;;;;5054375;28;20025;-71
2022/03/05 07:20:58;;;;;;;39.63;18.53;;;3.80;61.00;;;;;;5054075;28;20028;-70
2022/03/05 07:23:24;;;;;;;35.97;17.07;;;3.90;60.80;;;;;;5052731;28;20029;-70
2022/03/05 07:25:50;;;;;;;36.20;17.60;;;4.10;60.60;;;;;;5050707;28;20037;-72
2022/03/05 07:28:15;;;;;;;35.37;17.37;;;4.20;60.30;;;;;;5050208;28;20090;-72
2022/03/05 07:30:42;;;;;;;35.93;17.50;;;4.40;60.00;;;;;;5052775;28;20397;-72
2022/03/05 07:33:08;;;;;;;32.37;16.43;;;4.40;59.80;;;;;;5052759;28;20060;-72
2022/03/05 07:35:34;;;;;;;35.67;17.53;;;4.50;59.70;;;;;;5049433;28;20466;-71
2022/03/05 07:38:00;;;;;;;36.30;17.20;;;4.50;59.60;;;;;;5066942;28;20107;-72
2022/03/05 07:40:26;;;;;;;34.80;17.43;;;4.60;59.60;;;;;;5054150;28;20116;-72
2022/03/05 07:42:52;;;;;;;38.13;17.73;;;4.70;59.50;;;;;;5018409;28;20328;-72
2022/03/05 07:45:18;;;;;;;35.27;17.40;;;4.80;59.30;;;;;;5035517;28;20109;-73
2022/03/05 07:47:43;;;;;;;33.10;16.80;;;4.90;59.40;;;;;;5036388;28;20076;-73
2022/03/05 07:50:09;;;;;;;33.37;16.57;;;5.00;59.00;;;;;;5035209;28;20413;-72
2022/03/05 07:52:35;;;;;;;35.70;16.07;;;5.10;58.80;;;;;;5035566;28;20414;-71
2022/03/05 07:55:01;;;;;;;37.63;17.53;;;5.20;58.60;;;;;;5035374;28;20140;-71
2022/03/05 07:57:26;;;;;;;34.70;16.10;;;5.30;58.50;;;;;;5023803;28;20106;-73
2022/03/05 07:59:52;;;;;;;31.37;15.60;;;5.40;58.40;;;;;;5050257;28;20368;-72
2022/03/05 08:02:18;;;;;;;34.50;16.37;;;5.50;58.20;;;;;;5037416;28;20160;-74
2022/03/05 08:04:44;;;;;;;33.77;15.90;;;5.70;58.00;;;;;;5033466;28;20029;-73
2022/03/05 08:07:10;;;;;;;31.47;17.30;;;5.80;57.70;;;;;;5042747;28;20041;-74
2022/03/05 08:09:36;;;;;;;33.10;16.27;;;6.00;57.40;;;;;;5034758;28;20452;-73
2022/03/05 08:12:03;;;;;;;35.20;17.40;;;6.20;57.20;;;;;;5034865;28;20124;-73
2022/03/05 08:14:28;;;;;;;41.93;16.67;;;6.30;56.90;;;;;;5001060;28;20121;-74
2022/03/05 08:16:54;;;;;;;31.87;14.97;;;6.50;56.60;;;;;;5049550;28;20052;-73
2022/03/05 08:19:20;;;;;;;32.77;16.50;;;6.60;56.20;;;;;;5054913;28;20509;-74
2022/03/05 08:21:45;;;;;;;32.67;16.58;;;6.80;56.10;;;;;;5029934;28;20029;-73
2022/03/05 08:24:11;;;;;;;35.80;17.00;;;7.00;55.80;;;;;;5034747;28;20033;-73
2022/03/05 08:26:37;;;;;;;35.37;16.27;;;7.20;55.50;;;;;;5039859;28;20144;-73
2022/03/05 08:29:04;;;;;;;29.42;14.68;;;7.30;55.20;;;;;;5027111;28;20041;-74
2022/03/05 08:31:31;;;;;;;30.17;14.77;;;7.50;54.90;;;;;;5036735;28;20040;-70
2022/03/05 08:33:58;;;;;;;33.83;16.58;;;7.70;54.60;;;;;;5054130;28;20049;-71
2022/03/05 08:36:24;;;;;;;33.08;15.63;;;7.80;54.30;;;;;;5039573;28;20025;-70
2022/03/05 08:38:50;;;;;;;30.65;15.60;;;8.00;54.00;;;;;;5052459;28;20453;-70
2022/03/05 08:41:16;;;;;;;29.58;15.15;;;8.10;53.80;;;;;;5052132;28;20085;-70
2022/03/05 08:43:42;;;;;;;28.50;14.52;;;8.30;53.60;;;;;;5034390;28;20036;-70
2022/03/05 08:46:09;;;;;;;30.08;15.80;;;8.40;53.20;;;;;;5033428;28;20195;-70
2022/03/05 08:48:34;;;;;;;33.80;16.40;;;8.60;52.90;;;;;;5034093;28;20423;-70
2022/03/05 08:51:00;;;;;;;34.75;17.90;;;8.70;52.60;;;;;;5033296;28;20029;-70
2022/03/05 08:53:26;;;;;;;29.80;15.50;;;8.80;52.30;;;;;;5033344;28;20040;-70
2022/03/05 08:55:52;;;;;;;31.58;15.60;;;8.90;52.20;;;;;;5034316;28;20048;-70
2022/03/05 08:58:18;;;;;;;29.73;15.77;;;9.10;52.00;;;;;;5051361;28;20025;-70
2022/03/05 09:00:45;;;;;;;31.35;16.33;;;9.20;51.80;;;;;;5052873;28;20029;-70
2022/03/05 09:03:10;;;;;;;27.55;13.75;;;9.30;51.40;;;;;;5054114;28;20033;-70
2022/03/05 09:05:36;;;;;;;31.55;14.82;;;9.40;51.20;;;;;;5053767;28;20067;-70
2022/03/05 09:08:02;;;;;;;31.10;14.88;;;9.50;51.10;;;;;;5054345;28;20039;-70
2022/03/05 09:10:29;;;;;;;31.80;16.00;;;9.60;50.80;;;;;;5053905;28;20048;-70
2022/03/05 09:12:55;;;;;;;32.10;14.73;;;9.70;50.60;;;;;;5038533;28;20034;-70
2022/03/05 09:15:22;;;;;;;27.73;14.95;;;9.80;50.40;;;;;;5033986;28;20029;-70
2022/03/05 09:17:47;;;;;;;30.50;15.55;;;10.00;50.20;;;;;;5036623;28;20087;-70
2022/03/05 09:20:14;;;;;;;31.40;16.67;;;10.10;49.90;;;;;;5052972;28;20029;-70
2022/03/05 09:22:40;;;;;;;29.55;14.60;;;10.20;49.70;;;;;;5037884;28;20034;-70
2022/03/05 09:25:06;;;;;;;29.52;14.20;;;10.30;49.60;;;;;;5038360;28;20346;-70
2022/03/05 09:27:33;;;;;;;30.25;15.82;;;10.40;49.40;;;;;;5039468;28;20116;-70
2022/03/05 09:29:58;;;;;;;26.60;13.75;;;10.50;49.20;;;;;;5050058;28;20041;-70
2022/03/05 09:32:24;;;;;;;26.65;14.52;;;10.60;49.10;;;;;;5039872;28;20116;-70
2022/03/05 09:34:50;;;;;;;31.27;16.27;;;10.70;49.00;;;;;;5019221;28;20037;-72
2022/03/05 09:37:15;;;;;;;29.05;16.02;;;10.80;48.80;;;;;;5050354;28;20418;-72
2022/03/05 09:39:41;;;;;;;28.60;14.48;;;10.80;48.60;;;;;;5043999;28;20018;-71
2022/03/05 09:42:07;;;;;;;34.17;16.20;;;10.90;48.60;;;;;;5041594;28;20029;-72
2022/03/05 09:44:33;;;;;;;29.83;14.90;;;10.90;48.30;;;;;;5045167;28;20120;-71
2022/03/05 09:47:00;;;;;;;28.75;15.13;;;11.00;48.30;;;;;;5043356;28;20072;-72
2022/03/05 09:49:27;;;;;;;30.50;16.52;;;11.00;48.20;;;;;;5030582;28;20028;-72
2022/03/05 09:51:53;;;;;;;29.88;15.55;;;11.00;48.10;;;;;;5035368;28;20037;-71
2022/03/05 09:54:19;;;;;;;29.00;16.05;;;11.00;48.20;;;;;;5039523;28;20035;-70
2022/03/05 09:56:45;;;;;;;30.20;16.52;;;11.00;48.10;;;;;;5039947;28;20343;-70
2022/03/05 09:59:11;;;;;;;27.15;14.45;;;11.00;48.10;;;;;;5035936;28;20036;-70
2022/03/05 10:01:38;;;;;;;30.83;15.73;;;11.10;48.10;;;;;;5036097;28;20371;-69
2022/03/05 10:04:04;;;;;;;28.88;14.93;;;11.20;48.00;;;;;;5053598;28;20061;-69
2022/03/05 10:06:29;;;;;;;28.65;15.25;;;11.20;48.00;;;;;;5040544;28;20126;-69
2022/03/05 10:08:56;;;;;;;32.25;16.17;;;11.20;48.00;;;;;;5056531;28;20041;-69
2022/03/05 10:11:23;;;;;;;25.33;14.25;;;11.20;48.00;;;;;;5037999;28;20080;-71
2022/03/05 10:13:50;;;;;;;28.45;15.18;;;11.20;47.90;;;;;;5019308;28;20482;-71
2022/03/05 10:16:30;;;;;;;28.83;14.25;;;11.30;47.90;;;;;;5037542;28;20056;-71
2022/03/05 10:18:57;;;;;;;30.83;15.10;;;11.30;47.70;;;;;;5052077;28;20036;-70
2022/03/05 10:21:31;;;;;;;28.02;15.73;;;11.20;47.90;;;;;;5035751;28;20699;-71
2022/03/05 10:24:09;;;;;;;30.70;17.75;;;11.20;48.00;;;;;;5037156;28;20033;-71
2022/03/05 10:26:50;;;;;;;29.20;15.57;;;11.20;47.80;;;;;;5037083;28;20041;-71
2022/03/05 10:29:24;;;;;;;24.70;14.25;;;11.30;47.80;;;;;;5036558;28;20119;-72
2022/03/05 10:32:01;;;;;;;31.08;15.95;;;11.20;47.70;;;;;;5038454;28;20033;-71
2022/03/05 10:34:28;;;;;;;28.27;15.43;;;11.30;47.70;;;;;;5036631;28;20432;-71
2022/03/05 10:37:03;;;;;;;29.85;15.18;;;11.30;47.80;;;;;;5035456;28;20034;-71
2022/03/05 10:39:29;;;;;;;29.05;15.60;;;11.30;47.70;;;;;;5045143;28;20489;-70
2022/03/05 10:41:55;;;;;;;28.85;14.45;;;11.40;47.70;;;;;;5056795;28;20124;-72
2022/03/05 10:44:22;;;;;;;25.98;14.32;;;11.50;47.60;;;;;;5048398;28;20029;-71
2022/03/05 10:46:56;;;;;;;30.40;15.68;;;11.50;47.40;;;;;;5052618;28;20055;-71
2022/03/05 10:49:35;;;;;;;25.73;14.02;;;11.50;47.20;;;;;;5059977;28;20441;-71
2022/03/05 10:52:06;;;;;;;27.27;14.38;;;11.60;47.20;;;;;;5036386;28;20033;-71
2022/03/05 10:54:40;;;;;;;25.27;14.35;;;11.60;47.20;;;;;;5036954;28;20029;-71
2022/03/05 10:57:13;;;;;;;29.38;16.02;;;11.60;47.10;;;;;;5019098;28;20043;-71
2022/03/05 10:59:53;;;;;;;26.17;14.07;;;11.70;47.10;;;;;;5045950;28;20086;-71
2022/03/05 11:02:21;;;;;;;27.27;13.98;;;11.70;47.00;;;;;;5048558;28;20029;-70
2022/03/05 11:04:48;;;;;;;26.67;14.05;;;11.70;47.00;;;;;;5050095;28;20025;-68
2022/03/05 11:07:16;;;;;;;28.65;13.98;;;11.70;47.00;;;;;;5054316;28;20040;-73
2022/03/05 11:09:43;;;;;;;26.02;14.30;;;11.70;47.00;;;;;;5034886;28;20108;-70
2022/03/05 11:12:15;;;;;;;27.17;13.82;;;11.90;47.00;;;;;;5034454;28;20090;-70
2022/03/05 11:14:45;;;;;;;24.17;13.73;;;11.90;46.90;;;;;;5037332;28;20040;-70
2022/03/05 11:17:11;;;;;;;26.38;13.60;;;12.00;46.60;;;;;;5042641;28;20021;-71
2022/03/05 11:19:38;;;;;;;26.90;14.68;;;12.10;46.60;;;;;;5036106;28;20024;-70
2022/03/05 11:22:04;;;;;;;24.40;14.30;;;12.10;46.50;;;;;;5039998;28;20056;-73
2022/03/05 11:24:31;;;;;;;26.00;13.52;;;12.10;46.50;;;;;;5050729;28;20114;-71
2022/03/05 11:26:57;;;;;;;24.35;14.82;;;12.10;46.50;;;;;;5037339;28;20041;-70
2022/03/05 11:29:28;;;;;;;26.67;14.85;;;12.20;46.50;;;;;;5038290;28;20053;-70
2022/03/05 11:32:13;;;;;;;28.35;14.32;;;12.30;46.50;;;;;;5061420;28;20033;-70
2022/03/05 11:34:47;;;;;;;28.70;13.93;;;12.30;46.30;;;;;;5046665;28;20025;-70
2022/03/05 11:37:25;;;;;;;24.92;13.02;;;12.20;46.20;;;;;;5041228;28;20028;-71
2022/03/05 11:39:52;;;;;;;27.20;14.10;;;12.20;46.30;;;;;;5037302;28;20108;-70
2022/03/05 11:42:26;;;;;;;24.67;13.60;;;12.20;46.30;;;;;;5034109;28;20033;-70
2022/03/05 11:44:52;;;;;;;26.75;15.25;;;12.30;46.30;;;;;;5029739;28;20409;-71
2022/03/05 11:47:18;;;;;;;25.05;13.73;;;12.20;46.30;;;;;;5052876;28;20044;-71
2022/03/05 11:49:56;;;;;;;25.55;15.00;;;12.20;46.40;;;;;;5042628;28;20076;-70
2022/03/05 11:52:22;;;;;;;28.50;14.25;;;12.30;46.40;;;;;;5051278;28;20095;-71
2022/03/05 11:55:14;;;;;;;27.17;15.43;;;12.30;46.30;;;;;;5051309;28;20033;-70
2022/03/05 11:57:50;;;;;;;26.50;14.32;;;12.30;46.20;;;;;;5037666;28;20033;-69
2022/03/05 12:00:24;;;;;;;27.38;14.15;;;12.30;46.10;;;;;;5048159;28;20108;-69
2022/03/05 12:02:51;;;;;;;26.35;14.00;;;12.30;46.10;;;;;;5043573;28;20378;-69
2022/03/05 12:05:38;;;;;;;24.50;13.73;;;12.20;46.10;;;;;;5032511;28;20060;-69
2022/03/05 12:08:08;;;;;;;26.70;13.55;;;12.20;46.00;;;;;;5035860;28;20112;-70
2022/03/05 12:10:34;;;;;;;24.73;14.75;;;12.20;46.20;;;;;;5036608;28;20473;-70
2022/03/05 12:13:01;;;;;;;25.15;13.85;;;12.20;46.10;;;;;;5039429;28;20029;-69
2022/03/05 12:15:34;;;;;;;28.25;14.88;;;12.20;46.00;;;;;;5047733;28;20047;-70
2022/03/05 12:18:01;;;;;;;28.17;15.27;;;12.30;46.10;;;;;;5051876;28;20458;-71
2022/03/05 12:20:31;;;;;;;26.88;15.38;;;12.20;46.00;;;;;;5043978;28;20064;-69
2022/03/05 12:23:04;;;;;;;25.98;14.80;;;12.20;46.00;;;;;;5049300;28;20088;-69
2022/03/05 12:25:32;;;;;;;24.38;14.02;;;12.10;46.00;;;;;;5049236;28;20047;-69
2022/03/05 12:27:59;;;;;;;29.27;15.02;;;12.10;46.10;;;;;;5037887;28;20083;-69
2022/03/05 12:30:29;;;;;;;30.70;16.38;;;12.10;46.20;;;;;;5031760;28;20087;-69
2022/03/05 12:32:59;;;;;;;28.20;15.40;;;12.00;46.20;;;;;;5051980;28;20467;-69
2022/03/05 12:35:27;;;;;;;28.33;15.40;;;12.00;46.20;;;;;;5036250;28;20030;-68
2022/03/05 12:37:53;;;;;;;27.73;15.82;;;11.90;46.30;;;;;;5045262;28;20346;-69